Current Weather Conditions: station 44139

sailwx.info

Wind from 190 at 5 knots gusting 7

Wave height 0.8 meters (2 feet), 10 second period

Air temperature 6.8° C
Water temperature 5.8° C

Last reported at 2017-May-23 18:00 UTC.
Time now 2017-May-23 18:47 UTC

Location: N 44°12' W 057°06'.
View on Google Maps.

See reports from other nearby stations

  
Tides and Currents Weather Stations Pressure Air Temp Water Temp Dewpoint Dewpoint Depression Visibility Wind Speed Wind Dir Waves Ship Positions
date/time (UTC)wind fromknots sea level pressurealtimeterstation pressurevisibilityair tempwater tempwave heightnotes
2017-May-23 18:00 190 5 gusting 7 6.8 5.8 0.8
2017-May-23 17:00 190 7 gusting 7 6.9 6.0 0.8
2017-May-23 16:00 180 5 gusting 7 7.1 6.2 0.8
2017-May-23 15:00 180 3 gusting 7 6.9 5.4 0.8
2017-May-23 14:00 200 7.0 5.4 0.8
2017-May-23 13:00 320 6.6 5.3 0.8
2017-May-23 12:00 270 1 gusting 1 5.9 5.2 0.8
2017-May-23 11:00 5.4 5.0 0.8
2017-May-23 10:00 330 5 gusting 7 5.0 4.9 0.8
2017-May-23 09:00 320 7 gusting 9 5.1 4.8 0.8
2017-May-23 08:00 310 9 gusting 11 4.7 4.8 0.8
2017-May-23 07:00 320 11 gusting 11 4.9 4.9 0.9
2017-May-23 06:00 310 11 gusting 13 4.9 5.1 1.0
2017-May-23 05:00 290 9 gusting 11 4.9 5.4 1.0
2017-May-23 04:00 280 11 gusting 13 5.0 5.8 1.1
2017-May-23 03:00 280 9 gusting 11 4.9 6.0 1.1
2017-May-23 02:00 300 9 gusting 11 4.9 6.4 1.2
2017-May-23 01:00 300 11 gusting 11 4.8 6.8 1.2
2017-May-23 00:00 300 11 gusting 13 4.8 6.8 1.3
2017-May-22 23:00 310 11 gusting 13 4.7 6.9 1.4
2017-May-22 22:00 320 13 gusting 15 4.7 7.0 1.4
2017-May-22 21:00 310 13 gusting 15 4.5 7.2 1.5
2017-May-22 20:00 320 15 gusting 17 4.6 7.2 1.6
2017-May-22 19:00 310 15 gusting 19 4.6 7.4 1.7
2017-May-22 18:00 320 15 gusting 17 4.6 7.5 1.8
2017-May-22 17:00 330 17 gusting 19 4.7 7.7 2.0
2017-May-22 16:00 330 17 gusting 19 4.8 7.8 2.0
2017-May-22 15:00 330 19 gusting 23 5.0 8.0 2.2
2017-May-22 14:00 340 21 gusting 25 4.8 8.0 2.1
2017-May-22 13:00 340 21 gusting 25 4.8 8.1 2.3
2017-May-22 12:00 330 21 gusting 25 4.8 8.3 2.3
2017-May-22 11:00 340 21 gusting 25 4.7 8.5 2.4
2017-May-22 10:00 340 19 gusting 25 5.0 8.8 2.5
2017-May-22 09:00 330 21 gusting 27 4.9 7.8 2.9
2017-May-22 08:00 330 23 gusting 29 5.0 7.1 3.0
2017-May-22 07:00 330 25 gusting 31 4.9 5.8 3.1
2017-May-22 06:00 330 23 gusting 29 5.1 4.3 3.5
2017-May-22 05:00 330 25 gusting 31 5.1 9.2 3.5
2017-May-22 04:00 330 23 gusting 33 5.3 5.7 3.6
2017-May-22 03:00 330 25 gusting 31 5.3 9.1 4.2
2017-May-22 02:00 330 25 gusting 33 5.3 3.7 4.3
2017-May-22 01:00 330 27 gusting 34 5.1 4.7 4.5
2017-May-22 00:00 330 29 4.8
2017-May-21 23:00 320 29 gusting 34 4.6 4.4 4.9
2017-May-21 22:00 320 29 gusting 36 4.2 2.6 5.0
2017-May-21 21:00 320 31
2017-May-21 20:00 320 33 gusting 40 4.1 2.6 5.5
2017-May-21 19:00 320 31 gusting 38 4.0 2.3 5.1
2017-May-21 18:00 320 31 gusting 36 4.3 3.3 5.3